createdAt,value
2019-03-11T00:00:35.018Z,148359.20
2019-03-11T00:01:39.760Z,148339.05
2019-03-11T00:02:45.344Z,148360.47
2019-03-11T00:03:50.966Z,148349.16
2019-03-11T00:04:56.562Z,148327.69
2019-03-11T00:06:02.188Z,148299.91
2019-03-11T00:07:07.839Z,148325.78
2019-03-11T00:08:13.447Z,148339.69
2019-03-11T00:09:19.043Z,148322.66
2019-03-11T00:10:24.740Z,148333.97
2019-03-11T00:11:30.380Z,148371.84
2019-03-11T00:12:35.998Z,148326.41
2019-03-11T00:13:41.666Z,148344.08
2019-03-11T00:14:47.254Z,148353.53
2019-03-11T00:15:52.903Z,148357.34
2019-03-11T00:16:58.524Z,148373.75
2019-03-11T00:18:03.750Z,148347.25
2019-03-11T00:19:10.430Z,148353.53
2019-03-11T00:20:15.791Z,148357.34
2019-03-11T00:21:21.483Z,148339.69
2019-03-11T00:22:27.075Z,148356.72
2019-03-11T00:23:32.673Z,148351.00
2019-03-11T00:24:38.275Z,148375.02
2019-03-11T00:25:43.910Z,148375.59
2019-03-11T00:26:49.535Z,148397.08
2019-03-11T00:27:55.151Z,148382.58
2019-03-11T00:29:00.735Z,148356.08
2019-03-11T00:30:06.357Z,148353.53
2019-03-11T00:31:11.932Z,148338.41
2019-03-11T00:32:17.543Z,148324.56
2019-03-11T00:33:23.130Z,148335.87
2019-03-11T00:34:28.763Z,148342.17
2019-03-11T00:35:34.349Z,148390.78
2019-03-11T00:36:39.960Z,148398.34
2019-03-11T00:37:45.181Z,148376.87
2019-03-11T00:38:50.791Z,148366.19
2019-03-11T00:39:56.414Z,148350.38
2019-03-11T00:41:02.035Z,148342.81
2019-03-11T00:42:08.556Z,148376.23
2019-03-11T00:43:13.796Z,148337.14
2019-03-11T00:44:19.380Z,148327.69
2019-03-11T00:45:24.961Z,148327.69
2019-03-11T00:46:30.564Z,148316.31
2019-03-11T00:47:36.186Z,148309.37
2019-03-11T00:48:41.843Z,148306.25
2019-03-11T00:49:47.447Z,148318.84
2019-03-11T00:50:53.109Z,148317.58
2019-03-11T00:51:58.751Z,148317.58
2019-03-11T00:53:03.968Z,148323.92
2019-03-11T00:54:09.547Z,148347.25
2019-03-11T00:55:14.429Z,148366.81
2019-03-11T00:56:20.003Z,148393.27
2019-03-11T00:57:25.624Z,148395.81
2019-03-11T00:58:31.323Z,148415.38
2019-03-11T00:59:36.946Z,148409.08
2019-03-11T01:00:41.958Z,148419.78
2019-03-11T01:01:47.610Z,148363.64
2019-03-11T01:02:53.195Z,148366.81
2019-03-11T01:03:58.793Z,148375.02
2019-03-11T01:05:03.733Z,148399.61
2019-03-11T01:06:09.325Z,148404.00
2019-03-11T01:07:14.900Z,148410.30
2019-03-11T01:08:20.517Z,148398.97
2019-03-11T01:09:26.106Z,148419.14
2019-03-11T01:10:31.823Z,148429.25
2019-03-11T01:11:37.103Z,148395.17
2019-03-11T01:12:42.748Z,148374.38
2019-03-11T01:13:48.404Z,148389.52
2019-03-11T01:14:54.025Z,148392.63
2019-03-11T01:15:59.632Z,148386.97
2019-03-11T01:17:05.318Z,148390.78
2019-03-11T01:18:10.893Z,148388.88
2019-03-11T01:19:16.460Z,148417.28
2019-03-11T01:20:21.721Z,148450.09
2019-03-11T01:21:27.342Z,148431.14
2019-03-11T01:22:32.949Z,148378.77
2019-03-11T01:23:38.551Z,148392.05
2019-03-11T01:24:44.232Z,148358.56
2019-03-11T01:25:49.869Z,148398.97
2019-03-11T01:26:55.468Z,148429.25
2019-03-11T01:28:01.114Z,148443.11
2019-03-11T01:29:06.722Z,148458.92
2019-03-11T01:30:13.319Z,148436.81
2019-03-11T01:31:18.901Z,148458.92
2019-03-11T01:32:24.548Z,148436.81
2019-03-11T01:33:30.144Z,148419.78
2019-03-11T01:34:35.778Z,148455.75
2019-03-11T01:35:41.412Z,148430.52
2019-03-11T01:36:46.660Z,148443.11
2019-03-11T01:37:52.313Z,148467.75
2019-03-11T01:38:57.897Z,148474.06
2019-03-11T01:40:03.171Z,148490.47
2019-03-11T01:41:08.762Z,148477.81
2019-03-11T01:42:14.480Z,148462.69
2019-03-11T01:43:19.735Z,148433.69
2019-03-11T01:44:25.331Z,148416.02
2019-03-11T01:45:30.907Z,148445.64
2019-03-11T01:46:36.515Z,148440.63
2019-03-11T01:47:42.265Z,148468.34
2019-03-11T01:48:47.856Z,148472.78
2019-03-11T01:49:53.444Z,148474.06
2019-03-11T01:50:59.035Z,148444.38
2019-03-11T01:52:04.636Z,148458.92
2019-03-11T01:53:10.221Z,148457.02
2019-03-11T01:54:15.794Z,148464.59
2019-03-11T01:55:20.714Z,148443.11
2019-03-11T01:56:26.328Z,148455.75
2019-03-11T01:57:31.938Z,148470.25
2019-03-11T01:58:37.509Z,148460.78
2019-03-11T01:59:43.227Z,148459.56
2019-03-11T02:00:48.813Z,148454.48
2019-03-11T02:01:53.411Z,148460.14
2019-03-11T02:02:59.061Z,148445.64
2019-03-11T02:04:04.025Z,148447.55
2019-03-11T02:05:08.948Z,148459.56
2019-03-11T02:06:14.594Z,148449.45
2019-03-11T02:07:19.924Z,148433.69
2019-03-11T02:08:25.567Z,148470.25
2019-03-11T02:09:31.144Z,148457.02
2019-03-11T02:10:36.852Z,148437.44
2019-03-11T02:11:42.509Z,148468.98
2019-03-11T02:12:47.834Z,148445.00
2019-03-11T02:13:53.402Z,148443.11
2019-03-11T02:14:58.964Z,148475.33
2019-03-11T02:16:04.231Z,148487.92
2019-03-11T02:17:09.831Z,148477.81
2019-03-11T02:18:15.484Z,148425.48
2019-03-11T02:19:21.060Z,148436.81
2019-03-11T02:20:26.921Z,148440.63
2019-03-11T02:21:32.480Z,148428.61
2019-03-11T02:22:38.109Z,148460.14
2019-03-11T02:23:43.685Z,148466.48
2019-03-11T02:24:49.265Z,148457.02
2019-03-11T02:25:54.897Z,148491.09
2019-03-11T02:27:00.483Z,148478.45
2019-03-11T02:28:06.105Z,148486.02
2019-03-11T02:29:11.691Z,148491.73
2019-03-11T02:30:16.629Z,148446.91
2019-03-11T02:31:22.265Z,148480.36
2019-03-11T02:32:28.802Z,148463.95
2019-03-11T02:33:33.551Z,148467.13
2019-03-11T02:34:39.209Z,148439.34
2019-03-11T02:35:44.807Z,148395.81
2019-03-11T02:36:50.421Z,148416.66
2019-03-11T02:37:55.392Z,148397.08
2019-03-11T02:39:01.023Z,148420.41
2019-03-11T02:40:05.953Z,148425.48
2019-03-11T02:41:11.620Z,148424.84
2019-03-11T02:42:17.201Z,148419.14
2019-03-11T02:43:22.836Z,148422.94
2019-03-11T02:44:28.424Z,148426.06
2019-03-11T02:45:33.644Z,148436.17
2019-03-11T02:46:39.288Z,148459.56
2019-03-11T02:47:44.889Z,148459.56
2019-03-11T02:48:50.526Z,148433.05
2019-03-11T02:49:56.208Z,148426.06
2019-03-11T02:51:01.912Z,148462.05
2019-03-11T02:52:07.507Z,148439.98
2019-03-11T02:53:13.191Z,148453.22
2019-03-11T02:54:18.783Z,148460.78
2019-03-11T02:55:24.369Z,148484.80
2019-03-11T02:56:29.976Z,148494.22
2019-03-11T02:57:35.598Z,148469.62
2019-03-11T02:58:41.399Z,148428.61
2019-03-11T02:59:47.034Z,148440.63
2019-03-11T03:00:52.434Z,148434.91
2019-03-11T03:02:02.293Z,148449.45
2019-03-11T03:03:09.208Z,148426.06
2019-03-11T03:04:14.602Z,148410.94
2019-03-11T03:05:22.788Z,148397.08
2019-03-11T03:06:28.463Z,148396.44
2019-03-11T03:07:34.062Z,148408.45
2019-03-11T03:08:39.670Z,148407.81
2019-03-11T03:09:45.298Z,148383.84
2019-03-11T03:10:50.897Z,148385.06
2019-03-11T03:11:56.510Z,148376.87
2019-03-11T03:13:02.063Z,148351.64
2019-03-11T03:14:07.656Z,148324.56
2019-03-11T03:15:12.546Z,148318.84
2019-03-11T03:16:18.438Z,148322.02
2019-03-11T03:17:24.032Z,148311.92
2019-03-11T03:18:29.645Z,148323.28
2019-03-11T03:19:35.267Z,148333.97
2019-03-11T03:20:40.879Z,148336.50
2019-03-11T03:21:46.476Z,148313.81
2019-03-11T03:22:52.093Z,148309.37
2019-03-11T03:23:57.700Z,148315.09
2019-03-11T03:25:03.373Z,148330.22
2019-03-11T03:26:08.994Z,148358.56
2019-03-11T03:27:14.580Z,148351.00
2019-03-11T03:28:20.172Z,148318.84
2019-03-11T03:29:25.792Z,148322.02
2019-03-11T03:30:31.363Z,148325.78
2019-03-11T03:31:37.013Z,148338.41
2019-03-11T03:32:42.627Z,148347.25
2019-03-11T03:33:48.281Z,148344.08
2019-03-11T03:34:53.856Z,148328.95
2019-03-11T03:35:59.455Z,148322.02
2019-03-11T03:37:05.047Z,148320.11
2019-03-11T03:38:10.325Z,148339.69
2019-03-11T03:39:15.986Z,148335.87
2019-03-11T03:40:21.565Z,148323.92
2019-03-11T03:41:27.154Z,148312.55
2019-03-11T03:42:32.817Z,148265.28
2019-03-11T03:43:38.463Z,148259.56
2019-03-11T03:44:43.412Z,148252.00
2019-03-11T03:45:48.358Z,148245.70
2019-03-11T03:46:54.007Z,148291.08
2019-03-11T03:47:58.922Z,148320.75
2019-03-11T03:49:04.171Z,148313.19
2019-03-11T03:50:09.092Z,148299.91
2019-03-11T03:51:14.682Z,148322.02
2019-03-11T03:52:20.304Z,148332.13
2019-03-11T03:53:26.020Z,148303.08
2019-03-11T03:54:31.656Z,148275.33
2019-03-11T03:55:36.880Z,148292.34
2019-03-11T03:56:42.468Z,148304.98
2019-03-11T03:57:48.120Z,148304.34
2019-03-11T03:58:53.768Z,148330.22
2019-03-11T03:59:59.366Z,148315.72
2019-03-11T04:01:04.963Z,148245.70
2019-03-11T04:02:10.655Z,148237.52
2019-03-11T04:03:16.267Z,148256.44
2019-03-11T04:04:21.862Z,148225.52
2019-03-11T04:05:27.437Z,148249.47
2019-03-11T04:06:33.044Z,148250.09
2019-03-11T04:07:38.654Z,148277.86
2019-03-11T04:08:44.258Z,148278.50
2019-03-11T04:09:49.901Z,148265.86
2019-03-11T04:10:55.145Z,148233.72
2019-03-11T04:12:00.777Z,148194.00
2019-03-11T04:13:06.056Z,148180.16
2019-03-11T04:14:11.740Z,148187.08
2019-03-11T04:15:16.657Z,148212.92
2019-03-11T04:16:22.297Z,148231.86
2019-03-11T04:17:27.227Z,148255.81
2019-03-11T04:18:43.923Z,148227.41
2019-03-11T04:19:49.517Z,148250.09
2019-03-11T04:20:55.161Z,148284.16
2019-03-11T04:22:00.097Z,148298.69
2019-03-11T04:23:05.412Z,148277.86
2019-03-11T04:24:11.051Z,148238.16
2019-03-11T04:25:16.288Z,148290.50
2019-03-11T04:26:21.529Z,148295.53
2019-03-11T04:27:26.764Z,148279.13
2019-03-11T04:28:31.684Z,148270.94
2019-03-11T04:29:37.321Z,148238.16
2019-03-11T04:30:42.952Z,148254.55
2019-03-11T04:31:48.592Z,148296.80
2019-03-11T04:32:53.851Z,148301.19
2019-03-11T04:33:59.103Z,148332.75
2019-03-11T04:35:04.862Z,148352.91
2019-03-11T04:36:10.159Z,148316.31
2019-03-11T04:37:15.853Z,148289.86
2019-03-11T04:38:21.437Z,148307.53
2019-03-11T04:39:27.051Z,148324.56
2019-03-11T04:40:32.661Z,148342.81
2019-03-11T04:41:38.236Z,148335.87
2019-03-11T04:42:43.842Z,148327.05
2019-03-11T04:43:49.423Z,148311.92
2019-03-11T04:44:55.058Z,148327.69
2019-03-11T04:46:00.707Z,148368.67
2019-03-11T04:47:05.994Z,148348.52
2019-03-11T04:48:11.585Z,148299.91
2019-03-11T04:49:17.203Z,148292.98
2019-03-11T04:50:22.500Z,148262.73
2019-03-11T04:51:28.177Z,148281.66
2019-03-11T04:52:33.793Z,148252.00
2019-03-11T04:53:39.426Z,148286.69
2019-03-11T04:54:45.086Z,148257.66
2019-03-11T04:55:50.676Z,148214.83
2019-03-11T04:56:56.268Z,148245.08
2019-03-11T04:58:01.887Z,148226.78
2019-03-11T04:59:09.468Z,148223.03
2019-03-11T05:00:15.821Z,148183.28
2019-03-11T05:01:21.396Z,148181.38
2019-03-11T05:02:26.976Z,148184.53
2019-03-11T05:03:32.602Z,148204.73
2019-03-11T05:04:38.258Z,148218.59
2019-03-11T05:05:43.856Z,148285.42
2019-03-11T05:06:49.424Z,148272.83
2019-03-11T05:07:55.050Z,148250.73
2019-03-11T05:09:00.661Z,148208.48
2019-03-11T05:10:08.303Z,148202.83
2019-03-11T05:11:13.596Z,148180.16
2019-03-11T05:12:19.199Z,148168.16
2019-03-11T05:13:24.803Z,148182.64
2019-03-11T05:14:30.465Z,148164.41
2019-03-11T05:15:36.089Z,148158.69
2019-03-11T05:16:41.701Z,148197.17
2019-03-11T05:17:48.540Z,148185.81
2019-03-11T05:18:52.646Z,148207.84
2019-03-11T05:19:58.298Z,148236.88
2019-03-11T05:21:03.956Z,148285.42
2019-03-11T05:22:09.530Z,148329.58
2019-03-11T05:23:15.154Z,148347.25
2019-03-11T05:24:20.783Z,148299.91
2019-03-11T05:25:26.397Z,148265.28
2019-03-11T05:26:32.036Z,148282.30
2019-03-11T05:27:38.187Z,148289.22
2019-03-11T05:28:43.794Z,148300.55
2019-03-11T05:29:48.781Z,148316.94
2019-03-11T05:30:54.362Z,148341.59
2019-03-11T05:32:03.138Z,148318.22
2019-03-11T05:33:08.785Z,148335.25
2019-03-11T05:34:14.387Z,148369.31
2019-03-11T05:35:20.045Z,148343.44
2019-03-11T05:36:25.639Z,148345.98
2019-03-11T05:37:31.244Z,148342.17
2019-03-11T05:38:36.847Z,148360.47
2019-03-11T05:39:45.817Z,148388.88
2019-03-11T05:40:51.407Z,148386.34
2019-03-11T05:41:57.034Z,148405.91
2019-03-11T05:43:02.625Z,148391.41
2019-03-11T05:44:08.212Z,148416.02
2019-03-11T05:45:13.155Z,148361.73
2019-03-11T05:46:18.757Z,148332.75
2019-03-11T05:47:24.409Z,148392.05
2019-03-11T05:48:29.981Z,148372.47
2019-03-11T05:49:35.664Z,148369.94
2019-03-11T05:50:41.303Z,148342.17
2019-03-11T05:51:46.937Z,148344.08
2019-03-11T05:52:52.509Z,148391.41
2019-03-11T05:53:58.129Z,148410.30
2019-03-11T05:55:03.402Z,148411.56
2019-03-11T05:56:08.989Z,148398.34
2019-03-11T05:57:14.618Z,148383.22
2019-03-11T05:58:20.220Z,148344.72
2019-03-11T05:59:25.832Z,148371.84
2019-03-11T06:00:31.701Z,148355.44
2019-03-11T06:01:37.292Z,148386.97
2019-03-11T06:02:42.876Z,148368.03
2019-03-11T06:03:48.537Z,148411.56
2019-03-11T06:04:54.150Z,148397.70
2019-03-11T06:05:59.390Z,148368.03
2019-03-11T06:07:04.307Z,148332.13
2019-03-11T06:08:09.239Z,148311.28
2019-03-11T06:09:14.904Z,148293.62
2019-03-11T06:10:20.223Z,148318.84
2019-03-11T06:11:25.865Z,148274.69
2019-03-11T06:12:31.461Z,148277.22
2019-03-11T06:13:37.092Z,148335.25
2019-03-11T06:14:42.773Z,148354.81
2019-03-11T06:15:48.420Z,148347.88
2019-03-11T06:16:54.051Z,148368.67
2019-03-11T06:17:59.673Z,148315.09
2019-03-11T06:19:05.557Z,148333.97
2019-03-11T06:20:14.051Z,148296.80
2019-03-11T06:21:19.497Z,148284.16
2019-03-11T06:22:24.857Z,148266.50
2019-03-11T06:23:30.453Z,148251.37
2019-03-11T06:24:36.093Z,148299.33
2019-03-11T06:25:41.772Z,148275.95
2019-03-11T06:26:47.334Z,148275.33
2019-03-11T06:27:52.618Z,148272.83
2019-03-11T06:28:58.237Z,148232.44
2019-03-11T06:30:03.260Z,148253.28
2019-03-11T06:31:08.922Z,148278.50
2019-03-11T06:32:14.527Z,148275.95
2019-03-11T06:33:20.113Z,148246.34
2019-03-11T06:34:25.728Z,148257.66
2019-03-11T06:35:31.398Z,148260.83
2019-03-11T06:36:37.054Z,148253.28
2019-03-11T06:37:42.349Z,148216.05
2019-03-11T06:38:48.013Z,148216.69
2019-03-11T06:39:53.679Z,148252.64
2019-03-11T06:40:59.409Z,148253.28
2019-03-11T06:42:04.335Z,148248.25
2019-03-11T06:43:10.159Z,148241.91
2019-03-11T06:44:15.777Z,148261.47
2019-03-11T06:45:21.447Z,148248.83
2019-03-11T06:46:29.005Z,148208.48
2019-03-11T06:47:35.594Z,148199.03
2019-03-11T06:48:41.207Z,148194.62
2019-03-11T06:49:46.849Z,148168.16
2019-03-11T06:50:52.493Z,148173.17
2019-03-11T06:51:58.117Z,148219.86
2019-03-11T06:53:03.770Z,148200.94
2019-03-11T06:54:09.406Z,148171.33
2019-03-11T06:55:14.375Z,148191.47
2019-03-11T06:56:20.014Z,148214.19
2019-03-11T06:57:26.115Z,148200.30
2019-03-11T06:58:31.775Z,148167.52
2019-03-11T06:59:37.394Z,148165.63
2019-03-11T07:00:43.094Z,148178.25
2019-03-11T07:01:48.731Z,148174.44
2019-03-11T07:02:54.388Z,148187.08
2019-03-11T07:04:00.015Z,148179.52
2019-03-11T07:05:05.028Z,148188.98
2019-03-11T07:06:10.698Z,148207.22
2019-03-11T07:07:16.345Z,148206.59
2019-03-11T07:08:21.985Z,148233.08
2019-03-11T07:09:27.720Z,148273.47
2019-03-11T07:10:33.297Z,148252.64
2019-03-11T07:11:38.898Z,148310.66
2019-03-11T07:12:44.524Z,148338.41
2019-03-11T07:13:50.118Z,148362.37
2019-03-11T07:14:55.734Z,148381.31
2019-03-11T07:16:01.486Z,148400.25
2019-03-11T07:17:07.150Z,148337.78
2019-03-11T07:18:12.762Z,148348.52
2019-03-11T07:19:18.381Z,148369.94
2019-03-11T07:20:23.719Z,148355.44
2019-03-11T07:21:29.315Z,148347.88
2019-03-11T07:22:34.894Z,148341.59
2019-03-11T07:23:40.511Z,148364.28
2019-03-11T07:24:46.210Z,148380.03
2019-03-11T07:25:51.955Z,148372.47
2019-03-11T07:26:57.618Z,148389.52
2019-03-11T07:28:03.287Z,148371.84
2019-03-11T07:29:08.879Z,148361.11
2019-03-11T07:30:13.773Z,148369.31
2019-03-11T07:31:19.442Z,148380.03
2019-03-11T07:32:25.089Z,148414.75
2019-03-11T07:33:30.680Z,148401.47
2019-03-11T07:34:36.364Z,148421.05
2019-03-11T07:35:41.998Z,148420.41
2019-03-11T07:36:47.317Z,148441.89
2019-03-11T07:37:52.969Z,148440.63
2019-03-11T07:38:58.628Z,148398.97
2019-03-11T07:40:03.578Z,148407.81
2019-03-11T07:41:09.219Z,148396.44
2019-03-11T07:42:14.936Z,148422.94
2019-03-11T07:43:20.523Z,148417.88
2019-03-11T07:44:26.399Z,148462.05
2019-03-11T07:45:31.317Z,148472.16
2019-03-11T07:46:37.007Z,148472.16
2019-03-11T07:47:42.344Z,148502.42
2019-03-11T07:48:48.031Z,148492.37
2019-03-11T07:49:53.740Z,148483.53
2019-03-11T07:50:59.417Z,148478.45
2019-03-11T07:52:04.288Z,148455.75
2019-03-11T07:53:09.543Z,148472.16
2019-03-11T07:54:15.155Z,148486.66
2019-03-11T07:55:20.848Z,148462.05
2019-03-11T07:56:27.846Z,148455.13
2019-03-11T07:57:33.433Z,148468.34
2019-03-11T07:58:39.023Z,148491.09
2019-03-11T07:59:44.620Z,148502.42
2019-03-11T08:00:54.197Z,148493.64
2019-03-11T08:01:55.841Z,148493.00
2019-03-11T08:03:01.414Z,148486.02
2019-03-11T08:04:07.053Z,148460.78
2019-03-11T08:05:11.939Z,148519.47
2019-03-11T08:06:18.928Z,148507.50
2019-03-11T08:07:23.206Z,148448.81
2019-03-11T08:08:28.799Z,148477.81
2019-03-11T08:09:38.123Z,148491.73
2019-03-11T08:10:40.002Z,148500.56
2019-03-11T08:11:45.605Z,148507.50
2019-03-11T08:12:51.226Z,148491.73
2019-03-11T08:13:56.855Z,148532.11
2019-03-11T08:15:02.098Z,148542.86
2019-03-11T08:16:07.733Z,148522.64
2019-03-11T08:17:13.330Z,148537.78
2019-03-11T08:18:18.942Z,148506.88
2019-03-11T08:19:24.542Z,148489.83
2019-03-11T08:20:30.120Z,148514.44
2019-03-11T08:21:35.738Z,148492.37
2019-03-11T08:22:41.017Z,148494.86
2019-03-11T08:23:46.706Z,148544.12
2019-03-11T08:24:52.239Z,148557.36
2019-03-11T08:25:57.873Z,148548.52
2019-03-11T08:27:03.111Z,148561.17
2019-03-11T08:28:08.672Z,148556.72
2019-03-11T08:29:14.246Z,148580.06
2019-03-11T08:30:20.697Z,148586.42
2019-03-11T08:31:26.478Z,148580.70
2019-03-11T08:32:32.091Z,148595.84
2019-03-11T08:33:37.712Z,148640.05
2019-03-11T08:34:43.305Z,148672.88
2019-03-11T08:35:48.902Z,148667.84
2019-03-11T08:36:54.622Z,148678.59
2019-03-11T08:38:04.955Z,148659.64
2019-03-11T08:39:05.235Z,148657.09
2019-03-11T08:40:24.986Z,148689.92
2019-03-11T08:41:30.615Z,148692.47
2019-03-11T08:42:36.197Z,148700.69
2019-03-11T08:43:42.573Z,148724.67
2019-03-11T08:44:48.150Z,148741.72
2019-03-11T08:45:53.835Z,148718.37
2019-03-11T08:46:59.437Z,148745.53
2019-03-11T08:48:04.713Z,148775.19
2019-03-11T08:49:10.364Z,148794.16
2019-03-11T08:50:15.317Z,148813.13
2019-03-11T08:51:20.954Z,148777.73
2019-03-11T08:52:26.557Z,148801.09
2019-03-11T08:53:32.204Z,148852.91
2019-03-11T08:54:38.631Z,148856.09
2019-03-11T08:55:44.268Z,148877.55
2019-03-11T08:56:51.131Z,148926.20
2019-03-11T08:57:56.759Z,148864.94
2019-03-11T08:59:02.511Z,148849.73
2019-03-11T09:00:08.211Z,148850.38
2019-03-11T09:01:13.839Z,148837.13
2019-03-11T09:02:19.413Z,148854.19
2019-03-11T09:03:25.023Z,148814.97
2019-03-11T09:04:30.627Z,148840.89
2019-03-11T09:05:36.279Z,148765.72
2019-03-11T09:06:41.878Z,148789.13
2019-03-11T09:07:46.891Z,148810.58
2019-03-11T09:08:52.483Z,148835.84
2019-03-11T09:09:58.072Z,148866.80
2019-03-11T09:11:03.708Z,148846.61
2019-03-11T09:12:09.408Z,148811.84
2019-03-11T09:13:14.982Z,148825.73
2019-03-11T09:14:20.557Z,148823.23
2019-03-11T09:15:26.131Z,148818.78
2019-03-11T09:16:33.464Z,148844.70
2019-03-11T09:17:39.062Z,148839.66
2019-03-11T09:18:44.692Z,148840.25
2019-03-11T09:19:49.972Z,148825.73
2019-03-11T09:20:55.564Z,148840.25
2019-03-11T09:22:01.157Z,148849.73
2019-03-11T09:23:06.747Z,148851.64
2019-03-11T09:24:19.151Z,148842.16
2019-03-11T09:25:24.790Z,148796.70
2019-03-11T09:26:30.549Z,148773.92
2019-03-11T09:27:36.105Z,148790.98
2019-03-11T09:28:41.709Z,148782.14
2019-03-11T09:29:47.285Z,148768.89
2019-03-11T09:30:52.937Z,148780.91
2019-03-11T09:31:58.543Z,148803.64
2019-03-11T09:33:04.139Z,148801.73
2019-03-11T09:34:09.716Z,148803.00
2019-03-11T09:35:14.947Z,148809.94
2019-03-11T09:36:20.562Z,148797.92
2019-03-11T09:37:26.233Z,148845.97
2019-03-11T09:38:31.825Z,148868.70
2019-03-11T09:39:37.470Z,148869.34
2019-03-11T09:40:43.020Z,148868.06
2019-03-11T09:41:48.668Z,148888.94
2019-03-11T09:42:53.964Z,148873.16
2019-03-11T09:43:59.541Z,148895.25
2019-03-11T09:45:13.254Z,148959.09
2019-03-11T09:46:18.862Z,148950.89
2019-03-11T09:47:24.507Z,148884.50
2019-03-11T09:48:30.106Z,148897.16
2019-03-11T09:49:35.689Z,148902.19
2019-03-11T09:50:41.255Z,148973.05
2019-03-11T09:51:46.874Z,149032.47
2019-03-11T09:52:52.442Z,149061.53
2019-03-11T09:53:58.056Z,149035.59
2019-03-11T09:55:03.017Z,149086.17
2019-03-11T09:56:09.693Z,149099.48
2019-03-11T09:57:13.677Z,149107.70
2019-03-11T09:58:18.951Z,149093.81
2019-03-11T09:59:24.207Z,149082.41
2019-03-11T10:00:29.925Z,149012.84
2019-03-11T10:01:35.611Z,148940.81
2019-03-11T10:02:51.626Z,148950.89
2019-03-11T10:03:46.497Z,148948.39
2019-03-11T10:04:52.126Z,148873.16
2019-03-11T10:05:57.740Z,148916.13
2019-03-11T10:07:03.355Z,148934.47
2019-03-11T10:08:10.791Z,148914.86
2019-03-11T10:09:13.447Z,148880.72
2019-03-11T10:10:19.987Z,148906.64
2019-03-11T10:11:25.639Z,148901.56
2019-03-11T10:12:31.240Z,148938.91
2019-03-11T10:13:36.894Z,148978.08
2019-03-11T10:14:42.504Z,148949.03
2019-03-11T10:15:48.145Z,148937.00
2019-03-11T10:16:53.811Z,148944.58
2019-03-11T10:17:59.387Z,148940.81
2019-03-11T10:19:04.819Z,148943.94
2019-03-11T10:20:09.694Z,148915.50
2019-03-11T10:21:15.286Z,148939.55
2019-03-11T10:22:22.756Z,148892.06
2019-03-11T10:23:31.930Z,148873.78
2019-03-11T10:24:34.037Z,148892.70
2019-03-11T10:25:39.640Z,148886.41
2019-03-11T10:26:44.906Z,148853.55
2019-03-11T10:27:50.535Z,148842.16
2019-03-11T10:28:57.721Z,148845.34
2019-03-11T10:30:02.969Z,148830.81
2019-03-11T10:31:08.641Z,148827.00
2019-03-11T10:32:14.252Z,148861.13
2019-03-11T10:33:19.513Z,148842.80
2019-03-11T10:34:25.115Z,148842.16
2019-03-11T10:35:32.629Z,148893.34
2019-03-11T10:36:36.434Z,148884.50
2019-03-11T10:37:41.697Z,148877.55
2019-03-11T10:38:47.298Z,148886.41
2019-03-11T10:39:52.895Z,148878.19
2019-03-11T10:40:57.797Z,148861.75
2019-03-11T10:42:03.032Z,148891.44
2019-03-11T10:43:08.296Z,148845.97
2019-03-11T10:44:13.903Z,148825.73
2019-03-11T10:45:26.532Z,148833.31
2019-03-11T10:46:24.424Z,148815.61
2019-03-11T10:47:30.029Z,148813.75
2019-03-11T10:48:37.561Z,148846.61
2019-03-11T10:49:41.027Z,148864.94
2019-03-11T10:50:46.624Z,148883.22
2019-03-11T10:51:52.433Z,148855.45
2019-03-11T10:52:58.038Z,148889.58
2019-03-11T10:54:03.645Z,148903.47
2019-03-11T10:55:09.268Z,148938.28
2019-03-11T10:56:14.539Z,148901.56
2019-03-11T10:57:20.145Z,148856.09
2019-03-11T10:58:25.738Z,148854.19
2019-03-11T10:59:31.334Z,148885.77
2019-03-11T11:00:36.399Z,148870.61
2019-03-11T11:01:41.651Z,148845.34
2019-03-11T11:02:46.942Z,148837.75
2019-03-11T11:03:52.514Z,148863.03
2019-03-11T11:04:58.129Z,148856.72
2019-03-11T11:06:03.727Z,148847.25
2019-03-11T11:07:09.417Z,148902.19
2019-03-11T11:08:14.987Z,148932.59
2019-03-11T11:09:20.581Z,148963.56
2019-03-11T11:10:25.811Z,148950.25
2019-03-11T11:11:31.369Z,148933.23
2019-03-11T11:12:36.664Z,148926.83
2019-03-11T11:13:42.234Z,148921.80
2019-03-11T11:14:47.941Z,148926.83
2019-03-11T11:15:53.597Z,148971.77
2019-03-11T11:16:59.163Z,148987.56
2019-03-11T11:18:04.090Z,149005.27
2019-03-11T11:19:09.698Z,149045.08
2019-03-11T11:20:14.713Z,149004.00
2019-03-11T11:21:20.294Z,148997.69
2019-03-11T11:22:25.524Z,149026.75
2019-03-11T11:23:32.434Z,149026.16
2019-03-11T11:24:39.375Z,149095.67
2019-03-11T11:25:44.998Z,149103.25
2019-03-11T11:26:50.601Z,149096.30
2019-03-11T11:27:55.536Z,149110.88
2019-03-11T11:29:01.254Z,149112.11
2019-03-11T11:30:07.864Z,149112.11
2019-03-11T11:31:15.458Z,149099.48
2019-03-11T11:32:21.126Z,149041.95
2019-03-11T11:33:26.720Z,149042.59
2019-03-11T11:34:32.343Z,149076.73
2019-03-11T11:35:37.975Z,149063.44
2019-03-11T11:36:43.259Z,149055.22
2019-03-11T11:37:48.267Z,149041.95
2019-03-11T11:38:53.937Z,149063.44
2019-03-11T11:39:59.544Z,149129.19
2019-03-11T11:41:04.421Z,149081.14
2019-03-11T11:42:09.718Z,149061.53
2019-03-11T11:43:15.297Z,149083.69
2019-03-11T11:44:20.876Z,149126.05
2019-03-11T11:45:25.760Z,149085.59
2019-03-11T11:46:31.328Z,149072.92
2019-03-11T11:47:37.000Z,149030.56
2019-03-11T11:48:42.599Z,149064.70
2019-03-11T11:49:48.188Z,149050.81
2019-03-11T11:50:56.256Z,149043.22
2019-03-11T11:52:01.981Z,149014.13
2019-03-11T11:53:07.658Z,149051.44
2019-03-11T11:54:13.273Z,149075.47
2019-03-11T11:55:18.163Z,149091.27
2019-03-11T11:56:23.796Z,149077.95
2019-03-11T11:57:29.385Z,149041.95
2019-03-11T11:58:34.993Z,149027.37
2019-03-11T11:59:40.605Z,149047.63
2019-03-11T12:00:47.825Z,149076.73
2019-03-11T12:02:03.316Z,149071.64
2019-03-11T12:03:01.817Z,149052.03
2019-03-11T12:04:07.218Z,149034.97
2019-03-11T12:05:12.113Z,149060.25
2019-03-11T12:06:17.740Z,149058.39
2019-03-11T12:07:23.393Z,149014.13
2019-03-11T12:08:31.053Z,149011.58
2019-03-11T12:09:36.626Z,149030.56
2019-03-11T12:10:41.885Z,149001.45
2019-03-11T12:11:47.550Z,148985.03
2019-03-11T12:12:52.534Z,149002.72
2019-03-11T12:13:58.117Z,149010.94
2019-03-11T12:15:03.331Z,149005.27
2019-03-11T12:16:08.636Z,149000.23
2019-03-11T12:17:14.200Z,148983.17
2019-03-11T12:18:19.791Z,148988.84
2019-03-11T12:19:25.386Z,149032.47
2019-03-11T12:20:30.294Z,148991.38
2019-03-11T12:21:35.975Z,149029.92
2019-03-11T12:22:42.832Z,149001.45
2019-03-11T12:23:47.199Z,148978.72
2019-03-11T12:24:52.737Z,149005.91
2019-03-11T12:25:57.991Z,149019.80
2019-03-11T12:27:03.588Z,149002.72
2019-03-11T12:28:09.203Z,148986.94
2019-03-11T12:29:14.783Z,149005.27